Time;durP1;ratioP1;P1;durP2;ratioP2;P2;SDS_P1;SDS_P2;PMS_P1;PMS_P2;Temp;Humidity;BMP_temperature;BMP_pressure;BME280_temperature;BME280_humidity;BME280_pressure;Samples;Min_cycle;Max_cycle;Signal;HPM_P1;HPM_P2
2022/01/25 00:08:23;;;;;;;;;;;1.50;97.80;;;;;;5041179;28;19915;-70
2022/01/25 00:15:41;;;;;;;;;;;1.30;98.00;;;;;;5027655;28;19909;-71
2022/01/25 00:26:22;;;;;;;;;;;1.00;98.00;;;;;;5045491;28;20024;-71
2022/01/25 00:28:52;;;;;;;;;;;1.00;98.10;;;;;;5044484;28;20155;-71
2022/01/25 00:31:18;;;;;;;;;;;0.90;98.30;;;;;;5045174;28;20238;-71
2022/01/25 00:33:48;;;;;;;;;;;0.80;98.30;;;;;;5045354;28;19988;-71
2022/01/25 00:36:16;;;;;;;;;;;0.90;98.40;;;;;;5028018;28;19917;-71
2022/01/25 00:38:42;;;;;;;;;;;0.80;98.40;;;;;;5045202;28;19913;-71
2022/01/25 00:41:07;;;;;;;;;;;0.70;98.50;;;;;;5044837;28;20116;-71
2022/01/25 00:43:33;;;;;;;;;;;0.70;98.60;;;;;;5044146;28;20032;-71
2022/01/25 00:46:04;;;;;;;;;;;0.70;98.50;;;;;;5044080;28;19916;-70
2022/01/25 00:48:43;;;;;;;;;;;0.60;98.50;;;;;;5044876;28;19988;-70
2022/01/25 00:51:24;;;;;;;;;;;0.60;98.50;;;;;;5044832;28;19917;-70
2022/01/25 00:56:31;;;;;;;;;;;0.50;98.60;;;;;;5043808;28;19909;-70
2022/01/25 00:58:57;;;;;;;;;;;0.60;98.70;;;;;;5043830;28;19916;-70
2022/01/25 01:01:23;;;;;;;;;;;0.50;98.80;;;;;;5043707;28;19909;-71
2022/01/25 01:03:49;;;;;;;;;;;0.40;98.90;;;;;;5043810;28;20269;-71
2022/01/25 01:06:15;;;;;;;;;;;0.40;98.90;;;;;;5044901;28;19971;-72
2022/01/25 01:08:41;;;;;;;;;;;0.40;99.00;;;;;;5044678;28;19917;-71
2022/01/25 01:11:11;;;;;;;;;;;0.40;99.10;;;;;;5043229;28;19955;-71
2022/01/25 01:29:53;;;;;;;;;;;0.20;99.50;;;;;;5044282;28;19916;-71
2022/01/25 01:35:36;;;;;;;;;;;0.20;99.30;;;;;;5044534;28;19916;-71
2022/01/25 01:48:30;;;;;;;;;;;0.30;98.60;;;;;;5044087;28;20199;-70
2022/01/25 01:51:04;;;;;;;;;;;0.20;98.80;;;;;;5042911;28;19909;-70
2022/01/25 01:53:30;;;;;;;;;;;0.10;99.00;;;;;;5043146;28;19913;-71
2022/01/25 01:55:56;;;;;;;;;;;0.00;99.10;;;;;;5042798;28;20001;-72
2022/01/25 01:58:21;;;;;;;;;;;0.00;99.20;;;;;;5026229;28;19909;-71
2022/01/25 02:00:47;;;;;;;;;;;0.00;99.30;;;;;;5042567;28;20196;-71
2022/01/25 02:03:13;;;;;;;;;;;0.00;99.30;;;;;;5042533;28;19992;-71
2022/01/25 02:05:39;;;;;;;;;;;-0.10;99.40;;;;;;5042735;28;19924;-71
2022/01/25 02:08:05;;;;;;;;;;;-0.10;99.50;;;;;;5043494;28;19909;-71
2022/01/25 02:10:31;;;;;;;;;;;-0.20;99.60;;;;;;5043279;28;19956;-71
2022/01/25 02:12:57;;;;;;;;;;;-0.20;99.50;;;;;;5043479;28;20227;-71
2022/01/25 02:15:25;;;;;;;;;;;-0.20;99.50;;;;;;5042524;28;20112;-71
2022/01/25 02:23:20;;;;;;;;;;;-0.30;99.60;;;;;;5042503;28;19943;-70
2022/01/25 02:25:47;;;;;;;;;;;-0.40;99.70;;;;;;5025887;28;19909;-70
2022/01/25 02:28:13;;;;;;;;;;;-0.50;99.90;;;;;;5043180;28;19909;-70
2022/01/25 02:30:39;;;;;;;;;;;-0.50;99.90;;;;;;5043004;28;20163;-71
2022/01/25 02:33:04;;;;;;;;;;;-0.40;99.90;;;;;;5042222;28;19917;-72
2022/01/25 02:35:30;;;;;;;;;;;-0.40;99.70;;;;;;5041971;28;19909;-71
2022/01/25 02:37:56;;;;;;;;;;;-0.50;99.70;;;;;;5041753;28;19919;-71
2022/01/25 02:40:22;;;;;;;;;;;-0.50;99.70;;;;;;5043367;28;19909;-71
2022/01/25 02:42:47;;;;;;;;;;;-0.50;99.80;;;;;;5041987;28;19983;-71
2022/01/25 02:45:16;;;;;;;;;;;-0.50;99.80;;;;;;5043264;28;19909;-71
2022/01/25 02:50:26;;;;;;;;;;;-0.50;99.80;;;;;;5042947;28;19932;-72
2022/01/25 02:52:52;;;;;;;;;;;-0.50;99.70;;;;;;5024782;28;19929;-72
2022/01/25 02:55:18;;;;;;;;;;;-0.60;99.80;;;;;;5041684;28;19917;-71
2022/01/25 02:57:47;;;;;;;;;;;-0.60;99.80;;;;;;5042536;28;20114;-71
2022/01/25 03:00:13;;;;;;;;;;;-0.50;99.60;;;;;;5041426;28;19917;-70
2022/01/25 03:02:39;;;;;;;;;;;-0.60;99.60;;;;;;5041322;28;19921;-72
2022/01/25 03:05:06;;;;;;;;;;;-0.70;99.70;;;;;;5042723;28;19931;-71
2022/01/25 03:07:33;;;;;;;;;;;-0.70;99.80;;;;;;5041546;28;19988;-71
2022/01/25 03:09:59;;;;;;;;;;;-0.70;99.80;;;;;;5042418;28;19944;-71
2022/01/25 03:12:49;;;;;;;;;;;-0.70;99.80;;;;;;5042338;28;19909;-71
2022/01/25 03:17:49;;;;;;;;;;;-0.80;99.90;;;;;;5042236;28;19916;-71
2022/01/25 03:20:20;;;;;;;;;;;-0.80;99.90;;;;;;5041925;28;20277;-71
2022/01/25 03:25:21;;;;;;;;;;;-0.70;99.80;;;;;;5042783;28;19909;-68
2022/01/25 03:27:47;;;;;;;;;;;-0.80;99.90;;;;;;5041089;28;19916;-70
2022/01/25 03:30:13;;;;;;;;;;;-0.80;99.90;;;;;;5041323;28;20148;-70
2022/01/25 03:32:39;;;;;;;;;;;-0.80;99.90;;;;;;5042171;28;19984;-71
2022/01/25 03:35:05;;;;;;;;;;;-0.80;99.90;;;;;;5041273;28;20207;-71
2022/01/25 03:37:31;;;;;;;;;;;-0.80;99.90;;;;;;5042010;28;19913;-70
2022/01/25 03:39:56;;;;;;;;;;;-0.80;99.90;;;;;;5042209;28;20170;-70
2022/01/25 03:42:23;;;;;;;;;;;-0.80;99.80;;;;;;5041760;28;19921;-71
2022/01/25 03:44:49;;;;;;;;;;;-0.90;99.80;;;;;;5042289;28;19909;-69
2022/01/25 03:47:19;;;;;;;;;;;-0.90;99.80;;;;;;5057640;28;19992;-69
2022/01/25 03:49:52;;;;;;;;;;;-0.90;99.80;;;;;;5042016;28;20255;-69
2022/01/25 03:52:32;;;;;;;;;;;-0.90;99.70;;;;;;5041967;28;19917;-69
2022/01/25 03:54:58;;;;;;;;;;;-0.90;99.80;;;;;;5045125;28;19917;-69
2022/01/25 03:57:25;;;;;;;;;;;-0.90;99.80;;;;;;5045847;28;19932;-71
2022/01/25 03:59:52;;;;;;;;;;;-0.90;99.80;;;;;;5045786;28;19947;-70
2022/01/25 04:02:18;;;;;;;;;;;-0.90;99.80;;;;;;5044605;28;19921;-71
2022/01/25 04:04:45;;;;;;;;;;;-1.00;99.90;;;;;;5044953;28;20227;-70
2022/01/25 04:07:13;;;;;;;;;;;-1.00;99.90;;;;;;5046016;28;19909;-71
2022/01/25 04:09:39;;;;;;;;;;;-1.00;99.90;;;;;;5045964;28;19944;-70
2022/01/25 04:12:05;;;;;;;;;;;-1.00;99.90;;;;;;5044408;28;19916;-70
2022/01/25 04:14:31;;;;;;;;;;;-1.00;99.90;;;;;;5045731;28;20108;-71
2022/01/25 04:17:01;;;;;;;;;;;-1.00;99.90;;;;;;5044804;28;19909;-70
2022/01/25 04:19:41;;;;;;;;;;;-1.00;99.90;;;;;;5045827;28;19909;-70
2022/01/25 04:27:23;;;;;;;;;;;-1.00;99.50;;;;;;5045616;28;19917;-70
2022/01/25 04:29:49;;;;;;;;;;;-1.00;99.50;;;;;;5044472;28;19948;-70
2022/01/25 04:32:15;;;;;;;;;;;-1.10;99.50;;;;;;5045476;28;19913;-70
2022/01/25 04:34:57;;;;;;;;;;;-1.10;99.50;;;;;;5045513;28;19909;-70
2022/01/25 04:54:06;;;;;;;;;;;-1.00;99.70;;;;;;5045191;28;20208;-69
2022/01/25 04:59:09;;;;;;;;;;;-1.00;99.90;;;;;;5045217;28;19954;-70
2022/01/25 05:01:36;;;;;;;;;;;-1.00;99.90;;;;;;5044868;28;19909;-72
2022/01/25 05:04:07;;;;;;;;;;;-1.00;99.80;;;;;;5043628;28;19913;-71
2022/01/25 05:06:33;;;;;;;;;;;-0.90;99.60;;;;;;5044737;28;20163;-69
2022/01/25 05:09:11;;;;;;;;;;;-0.80;99.40;;;;;;5043795;28;19909;-70
2022/01/25 05:11:40;;;;;;;;;;;-0.80;99.30;;;;;;5044316;28;19909;-70
2022/01/25 05:16:35;;;;;;;;;;;-0.80;99.00;;;;;;5044796;28;20154;-69
2022/01/25 05:24:26;;;;;;;;;;;-0.70;98.90;;;;;;5044661;28;19921;-70
2022/01/25 05:26:51;;;;;;;;;;;-0.70;98.70;;;;;;5044158;28;19909;-70
2022/01/25 05:29:17;;;;;;;;;;;-0.80;98.70;;;;;;5044134;28;19943;-70
2022/01/25 05:31:43;;;;;;;;;;;-0.80;98.60;;;;;;5044067;28;20204;-70
2022/01/25 05:34:09;;;;;;;;;;;-0.90;98.80;;;;;;5044409;28;19909;-70
2022/01/25 05:36:38;;;;;;;;;;;-1.00;98.90;;;;;;5035668;28;19980;-70
2022/01/25 05:39:10;;;;;;;;;;;-0.90;99.00;;;;;;5048241;28;19941;-70
2022/01/25 05:41:36;;;;;;;;;;;-1.00;99.00;;;;;;5033200;28;20231;-70
2022/01/25 05:46:45;;;;;;;;;;;-1.10;99.10;;;;;;5041373;28;19921;-70
2022/01/25 05:49:11;;;;;;;;;;;-1.00;99.00;;;;;;5058249;28;19916;-71
2022/01/25 05:51:37;;;;;;;;;;;-1.00;99.00;;;;;;5043787;28;19908;-71
2022/01/25 05:54:02;;;;;;;;;;;-1.10;98.90;;;;;;5044097;28;20174;-71
2022/01/25 05:56:28;;;;;;;;;;;-1.00;98.90;;;;;;5043842;28;19955;-68
2022/01/25 05:58:54;;;;;;;;;;;-1.10;98.90;;;;;;5043943;28;19909;-69
2022/01/25 06:01:19;;;;;;;;;;;-1.10;99.10;;;;;;5043517;28;19913;-69
2022/01/25 06:03:45;;;;;;;;;;;-1.10;99.10;;;;;;5041074;28;19913;-69
2022/01/25 06:06:12;;;;;;;;;;;-1.10;99.40;;;;;;5042365;28;20176;-68
2022/01/25 06:08:37;;;;;;;;;;;-1.10;99.50;;;;;;5043658;28;19926;-69
2022/01/25 06:11:03;;;;;;;;;;;-1.10;99.30;;;;;;5042910;28;19909;-68
2022/01/25 06:13:29;;;;;;;;;;;-1.10;99.50;;;;;;5043134;28;20275;-68
2022/01/25 06:15:55;;;;;;;;;;;-1.10;99.60;;;;;;5042899;28;19909;-68
2022/01/25 06:18:20;;;;;;;;;;;-1.10;99.50;;;;;;5042642;28;19916;-68
2022/01/25 06:20:46;;;;;;;;;;;-1.00;99.50;;;;;;5042854;28;20200;-68
2022/01/25 06:23:12;;;;;;;;;;;-0.90;99.30;;;;;;5043262;28;19925;-68
2022/01/25 06:25:38;;;;;;;;;;;-0.80;99.10;;;;;;5043236;28;19928;-69
2022/01/25 06:28:04;;;;;;;;;;;-0.80;99.10;;;;;;5041700;28;19984;-68
2022/01/25 06:30:30;;;;;;;;;;;-0.80;99.50;;;;;;5041782;28;19909;-69
2022/01/25 06:32:55;;;;;;;;;;;-0.70;99.50;;;;;;5043354;28;19909;-69
2022/01/25 06:35:21;;;;;;;;;;;-0.70;99.40;;;;;;5042321;28;19931;-69
2022/01/25 06:37:47;;;;;;;;;;;-0.70;99.40;;;;;;5043089;28;19956;-69
2022/01/25 06:40:13;;;;;;;;;;;-0.60;99.50;;;;;;5043108;28;19917;-69
2022/01/25 06:42:38;;;;;;;;;;;-0.60;99.40;;;;;;5041871;28;19921;-69
2022/01/25 06:45:10;;;;;;;;;;;-0.60;99.40;;;;;;5043527;28;20207;-69
2022/01/25 06:47:35;;;;;;;;;;;-0.50;99.20;;;;;;5043018;28;19983;-68
2022/01/25 06:50:01;;;;;;;;;;;-0.40;98.80;;;;;;5035974;28;19920;-69
2022/01/25 06:52:27;;;;;;;;;;;-0.30;98.50;;;;;;5034198;28;19919;-69
2022/01/25 06:54:53;;;;;;;;;;;-0.20;98.40;;;;;;5042869;28;20246;-69
2022/01/25 06:57:18;;;;;;;;;;;-0.20;98.30;;;;;;5042762;28;19929;-69
2022/01/25 06:59:44;;;;;;;;;;;-0.20;98.40;;;;;;5042551;28;19908;-69
2022/01/25 07:02:11;;;;;;;;;;;-0.30;98.70;;;;;;5041206;28;19913;-64
2022/01/25 07:04:37;;;;;;;;;;;-0.10;99.30;;;;;;5032765;28;19967;-69
2022/01/25 07:07:03;;;;;;;;;;;-0.10;99.00;;;;;;5039676;28;19913;-68
2022/01/25 07:09:29;;;;;;;;;;;-0.10;99.20;;;;;;5030635;28;19920;-67
2022/01/25 07:11:55;;;;;;;;;;;-0.10;99.10;;;;;;5022245;28;19988;-67
2022/01/25 07:14:20;;;;;;;;;;;-0.10;99.10;;;;;;5022716;28;19913;-67
2022/01/25 07:16:46;;;;;;;;;;;-0.20;99.20;;;;;;5021715;28;20116;-67
2022/01/25 07:19:13;;;;;;;;;;;-0.10;99.50;;;;;;5031256;28;19916;-67
2022/01/25 07:21:38;;;;;;;;;;;-0.10;99.30;;;;;;5042004;28;19919;-67
2022/01/25 07:24:05;;;;;;;;;;;-0.10;99.50;;;;;;5042083;28;19953;-67
2022/01/25 07:26:30;;;;;;;;;;;0.00;99.40;;;;;;5042268;28;19909;-67
2022/01/25 07:28:56;;;;;;;;;;;0.00;99.40;;;;;;5046155;28;19915;-78
2022/01/25 07:31:22;;;;;;;;;;;0.00;99.50;;;;;;5040743;28;19919;-71
2022/01/25 07:33:47;;;;;;;;;;;0.00;99.60;;;;;;5041282;28;19964;-72
2022/01/25 07:36:13;;;;;;;;;;;0.00;99.50;;;;;;5042388;28;20115;-72
2022/01/25 07:38:39;;;;;;;;;;;-0.10;99.90;;;;;;5042682;28;19917;-67
2022/01/25 07:41:04;;;;;;;;;;;-0.10;99.90;;;;;;5041822;28;19909;-66
2022/01/25 07:43:30;;;;;;;;;;;-0.10;99.90;;;;;;5033885;28;19913;-67
2022/01/25 07:45:58;;;;;;;;;;;0.00;99.90;;;;;;5031246;28;19909;-67
2022/01/25 07:48:24;;;;;;;;;;;0.00;99.90;;;;;;5041499;28;19910;-73
2022/01/25 07:50:50;;;;;;;;;;;0.00;99.90;;;;;;5041100;28;19940;-73
2022/01/25 07:53:16;;;;;;;;;;;0.00;99.90;;;;;;5041089;28;19909;-72
2022/01/25 07:55:42;;;;;;;;;;;0.00;99.80;;;;;;5041501;28;19909;-73
2022/01/25 07:58:07;;;;;;;;;;;0.00;99.80;;;;;;5039783;28;19980;-77
2022/01/25 08:00:33;;;;;;;;;;;0.00;99.80;;;;;;5039904;28;19980;-76
2022/01/25 08:02:59;;;;;;;;;;;-0.10;99.80;;;;;;5041351;28;19917;-78
2022/01/25 08:05:26;;;;;;;;;;;-0.10;99.90;;;;;;5040227;28;19999;-77
2022/01/25 08:07:53;;;;;;;;;;;-0.10;99.90;;;;;;5041399;28;19909;-78
2022/01/25 08:10:19;;;;;;;;;;;-0.10;99.90;;;;;;5023649;28;19909;-76
2022/01/25 08:12:44;;;;;;;;;;;-0.10;99.90;;;;;;5023429;28;20196;-78
2022/01/25 08:15:10;;;;;;;;;;;-0.10;99.90;;;;;;5040384;28;19909;-78
2022/01/25 08:17:36;;;;;;;;;;;-0.10;99.90;;;;;;5041412;28;19972;-78
2022/01/25 08:20:03;;;;;;;;;;;-0.10;99.80;;;;;;5041323;28;19917;-78
2022/01/25 08:22:28;;;;;;;;;;;0.00;99.80;;;;;;5039726;28;19913;-77
2022/01/25 08:24:54;;;;;;;;;;;0.00;99.50;;;;;;5041325;28;19909;-78
2022/01/25 08:27:22;;;;;;;;;;;0.00;99.50;;;;;;5041116;28;19909;-78
2022/01/25 08:29:51;;;;;;;;;;;-0.10;99.50;;;;;;5040671;28;19925;-79
2022/01/25 08:32:17;;;;;;;;;;;-0.10;99.70;;;;;;5024007;28;19987;-77
2022/01/25 08:34:43;;;;;;;;;;;-0.10;99.40;;;;;;5040151;28;19975;-78
2022/01/25 08:37:09;;;;;;;;;;;0.00;99.60;;;;;;5039656;28;19928;-77
2022/01/25 08:39:34;;;;;;;;;;;-0.10;99.40;;;;;;5040805;28;20103;-78
2022/01/25 08:42:00;;;;;;;;;;;-0.10;99.40;;;;;;5042946;28;19916;-77
2022/01/25 08:44:26;;;;;;;;;;;-0.10;99.50;;;;;;5044191;28;20246;-77
2022/01/25 08:46:52;;;;;;;;;;;0.00;99.30;;;;;;5044072;28;19909;-77
2022/01/25 08:49:20;;;;;;;;;;;-0.10;99.40;;;;;;5023912;28;19925;-78
2022/01/25 08:51:48;;;;;;;;;;;0.00;99.50;;;;;;5024347;28;19909;-79
2022/01/25 08:54:14;;;;;;;;;;;0.00;99.40;;;;;;5023512;28;19972;-78
2022/01/25 08:56:41;;;;;;;;;;;0.00;99.30;;;;;;5025153;28;20147;-78
2022/01/25 08:59:08;;;;;;;;;;;0.00;99.50;;;;;;5025140;28;19909;-79
2022/01/25 09:01:33;;;;;;;;;;;0.00;99.50;;;;;;5020499;28;19909;-79
2022/01/25 09:04:01;;;;;;;;;;;0.00;99.40;;;;;;5023882;28;20254;-79
2022/01/25 09:06:27;;;;;;;;;;;0.10;99.40;;;;;;5025282;28;19949;-78
2022/01/25 09:08:58;;;;;;;;;;;0.10;99.30;;;;;;5025281;28;20255;-77
2022/01/25 09:11:23;;;;;;;;;;;0.10;99.40;;;;;;5007634;28;19909;-80
2022/01/25 09:13:49;;;;;;;;;;;0.00;99.40;;;;;;5026740;28;19916;-77
2022/01/25 09:16:15;;;;;;;;;;;0.10;99.60;;;;;;5044954;28;20123;-76
2022/01/25 09:18:40;;;;;;;;;;;0.00;99.70;;;;;;5044641;28;20459;-77
2022/01/25 09:21:06;;;;;;;;;;;0.10;99.70;;;;;;5044242;28;19913;-76
2022/01/25 09:23:32;;;;;;;;;;;0.10;99.70;;;;;;5043469;28;20282;-76
2022/01/25 09:25:58;;;;;;;;;;;0.10;99.70;;;;;;5044552;28;19955;-77
2022/01/25 09:28:26;;;;;;;;;;;0.00;99.80;;;;;;5042932;28;20462;-77
2022/01/25 09:30:51;;;;;;;;;;;0.10;99.80;;;;;;5043249;28;20284;-77
2022/01/25 09:33:17;;;;;;;;;;;0.10;99.60;;;;;;5044319;28;19917;-77
2022/01/25 09:35:43;;;;;;;;;;;0.10;99.60;;;;;;5044511;28;19917;-77
2022/01/25 09:38:09;;;;;;;;;;;0.20;99.80;;;;;;5043986;28;19919;-77
2022/01/25 09:40:34;;;;;;;;;;;0.20;99.60;;;;;;5044084;28;19940;-77
2022/01/25 09:43:01;;;;;;;;;;;0.20;99.60;;;;;;5036474;28;20222;-76
2022/01/25 09:45:26;;;;;;;;;;;0.20;99.90;;;;;;5036079;28;19909;-77
2022/01/25 09:47:52;;;;;;;;;;;0.30;99.70;;;;;;5043302;28;19992;-77
2022/01/25 09:50:18;;;;;;;;;;;0.40;99.50;;;;;;5043904;28;19916;-76
2022/01/25 09:52:44;;;;;;;;;;;0.30;99.60;;;;;;5042075;28;19956;-76
2022/01/25 09:55:15;;;;;;;;;;;0.30;99.70;;;;;;5043258;28;19909;-75
2022/01/25 09:57:41;;;;;;;;;;;0.40;99.60;;;;;;5044085;28;20215;-76
2022/01/25 10:00:08;;;;;;;;;;;0.40;99.60;;;;;;5043264;28;19909;-72
2022/01/25 10:02:56;;;;;;;;;;;0.50;99.70;;;;;;5042710;28;20151;-72
2022/01/25 10:05:33;;;;;;;;;;;0.60;99.30;;;;;;5026768;28;19924;-72
2022/01/25 10:08:06;;;;;;;;;;;0.70;99.00;;;;;;5042559;28;19909;-72
2022/01/25 10:10:34;;;;;;;;;;;0.70;98.90;;;;;;5042617;28;19920;-76
2022/01/25 10:13:22;;;;;;;;;;;0.70;98.80;;;;;;5022199;28;19909;-76
2022/01/25 10:15:48;;;;;;;;;;;0.70;98.80;;;;;;5036900;28;19940;-76
2022/01/25 10:18:15;;;;;;;;;;;0.80;98.70;;;;;;5043847;28;19916;-73
2022/01/25 10:20:45;;;;;;;;;;;0.80;98.80;;;;;;5041756;28;19909;-74
2022/01/25 10:23:31;;;;;;;;;;;0.90;98.60;;;;;;5044329;28;19924;-75
2022/01/25 10:25:59;;;;;;;;;;;0.90;98.50;;;;;;5045298;28;19915;-75
2022/01/25 10:28:28;;;;;;;;;;;0.90;98.80;;;;;;5044600;28;19909;-75
2022/01/25 10:30:55;;;;;;;;;;;1.00;98.50;;;;;;5045059;28;20223;-75
2022/01/25 10:33:25;;;;;;;;;;;0.90;98.40;;;;;;5045988;28;19909;-75
2022/01/25 10:35:52;;;;;;;;;;;1.00;98.20;;;;;;5046249;28;19917;-75
2022/01/25 10:38:32;;;;;;;;;;;1.00;98.20;;;;;;5045044;28;19921;-75
2022/01/25 10:41:15;;;;;;;;;;;1.00;98.10;;;;;;5044247;28;19963;-75
2022/01/25 10:43:42;;;;;;;;;;;0.80;98.60;;;;;;5038315;28;19948;-75
2022/01/25 10:46:09;;;;;;;;;;;0.90;98.80;;;;;;5042130;28;19943;-75
2022/01/25 10:48:35;;;;;;;;;;;0.90;98.90;;;;;;5037651;28;19954;-75
2022/01/25 10:51:05;;;;;;;;;;;0.90;98.80;;;;;;5044763;28;20104;-75
2022/01/25 10:53:31;;;;;;;;;;;0.90;98.90;;;;;;5046385;28;20373;-75
2022/01/25 10:55:57;;;;;;;;;;;0.90;98.80;;;;;;5046150;28;19909;-76
2022/01/25 10:58:23;;;;;;;;;;;1.00;98.60;;;;;;5044496;28;19916;-75
2022/01/25 11:00:51;;;;;;;;;;;0.90;98.90;;;;;;5044605;28;19920;-75
2022/01/25 11:03:31;;;;;;;;;;;1.00;98.60;;;;;;5011298;28;19947;-76
2022/01/25 11:05:56;;;;;;;;;;;1.00;98.60;;;;;;5046328;28;19980;-76
2022/01/25 11:08:23;;;;;;;;;;;1.10;98.60;;;;;;5045414;28;19936;-75
2022/01/25 11:11:00;;;;;;;;;;;1.10;98.50;;;;;;5045417;28;19909;-75
2022/01/25 11:15:55;;;;;;;;;;;1.10;98.50;;;;;;5034441;28;19909;-75
2022/01/25 11:18:21;;;;;;;;;;;1.10;98.40;;;;;;5046112;28;19945;-75
2022/01/25 11:20:47;;;;;;;;;;;1.10;98.30;;;;;;5046264;28;19909;-75
2022/01/25 11:23:12;;;;;;;;;;;1.20;98.40;;;;;;5046257;28;19921;-75
2022/01/25 11:25:39;;;;;;;;;;;1.20;98.30;;;;;;5046175;28;19909;-75
2022/01/25 11:28:05;;;;;;;;;;;1.30;98.10;;;;;;5046227;28;20143;-75
2022/01/25 11:30:31;;;;;;;;;;;1.30;97.90;;;;;;5028987;28;19971;-76
2022/01/25 11:32:56;;;;;;;;;;;1.40;97.70;;;;;;5045720;28;19909;-75
2022/01/25 11:35:24;;;;;;;;;;;1.40;97.60;;;;;;5028735;28;20123;-75
2022/01/25 11:37:50;;;;;;;;;;;1.40;97.70;;;;;;5027749;28;19913;-69
2022/01/25 11:40:30;;;;;;;;;;;1.40;98.10;;;;;;5041759;28;19995;-68
2022/01/25 11:43:01;;;;;;;;;;;1.30;98.00;;;;;;5044545;28;19913;-75
2022/01/25 11:45:28;;;;;;;;;;;1.20;97.90;;;;;;5037522;28;20376;-75
2022/01/25 11:47:54;;;;;;;;;;;1.20;97.80;;;;;;5028665;28;20222;-74
2022/01/25 11:50:28;;;;;;;;;;;1.10;97.80;;;;;;5043339;28;19910;-78
2022/01/25 11:52:55;;;;;;;;;;;1.10;98.30;;;;;;5047079;28;20254;-76
2022/01/25 11:55:33;;;;;;;;;;;1.20;98.00;;;;;;5046313;28;19920;-77
2022/01/25 11:58:07;;;;;;;;;;;1.20;97.90;;;;;;5045137;28;20203;-76
2022/01/25 12:00:50;;;;;;;;;;;1.10;98.10;;;;;;5045286;28;19917;-77
2022/01/25 12:03:23;;;;;;;;;;;1.10;98.30;;;;;;5046094;28;19935;-77
2022/01/25 12:06:07;;;;;;;;;;;1.20;98.50;;;;;;5045865;28;19946;-76
2022/01/25 12:11:32;;;;;;;;;;;1.20;98.10;;;;;;5045753;28;19909;-77
2022/01/25 12:14:22;;;;;;;;;;;1.30;98.30;;;;;;5046370;28;20147;-77
2022/01/25 12:16:57;;;;;;;;;;;1.30;98.20;;;;;;5049061;28;19913;-77
2022/01/25 12:19:40;;;;;;;;;;;1.50;97.50;;;;;;5048978;28;19939;-77
2022/01/25 12:22:33;;;;;;;;;;;1.40;97.40;;;;;;5048900;28;19916;-76
2022/01/25 12:27:55;;;;;;;;;;;1.20;98.00;;;;;;5045071;28;19909;-77
2022/01/25 12:30:31;;;;;;;;;;;1.20;98.10;;;;;;5048388;28;19909;-77
2022/01/25 12:33:21;;;;;;;;;;;1.30;98.10;;;;;;5049236;28;19909;-76
2022/01/25 12:35:50;;;;;;;;;;;1.30;98.00;;;;;;5042393;28;20139;-77
2022/01/25 12:38:19;;;;;;;;;;;1.20;98.20;;;;;;5047380;28;19920;-77
2022/01/25 12:41:09;;;;;;;;;;;1.30;98.10;;;;;;5047841;28;19909;-77
2022/01/25 12:43:44;;;;;;;;;;;1.30;97.80;;;;;;5059407;28;19913;-77
2022/01/25 12:46:18;;;;;;;;;;;1.30;97.90;;;;;;5050011;28;19909;-77
2022/01/25 12:48:48;;;;;;;;;;;1.30;98.10;;;;;;5048369;28;19909;-76
2022/01/25 12:51:19;;;;;;;;;;;1.30;98.10;;;;;;5048696;28;19967;-76
2022/01/25 12:53:46;;;;;;;;;;;1.10;98.30;;;;;;5032667;28;19916;-77
2022/01/25 12:56:29;;;;;;;;;;;1.10;98.20;;;;;;5049330;28;19916;-77
2022/01/25 12:59:07;;;;;;;;;;;1.10;98.40;;;;;;5047116;28;20138;-77
2022/01/25 13:01:35;;;;;;;;;;;1.20;98.40;;;;;;5046644;28;19928;-76
2022/01/25 13:04:01;;;;;;;;;;;1.30;98.30;;;;;;5047786;28;19960;-77
2022/01/25 13:06:32;;;;;;;;;;;1.40;98.00;;;;;;5046876;28;19909;-77
2022/01/25 13:09:37;;;;;;;;;;;1.20;98.30;;;;;;5046717;28;19948;-76
2022/01/25 13:17:17;;;;;;;;;;;1.30;97.90;;;;;;5048097;28;19909;-75
2022/01/25 13:19:48;;;;;;;;;;;1.10;98.30;;;;;;5042419;28;19980;-75
2022/01/25 13:22:17;;;;;;;;;;;1.10;98.70;;;;;;5026651;28;19913;-75
2022/01/25 13:27:50;;;;;;;;;;;1.10;98.80;;;;;;5022955;28;19917;-75
2022/01/25 13:33:06;;;;;;;;;;;1.10;98.40;;;;;;5027051;28;19916;-75
2022/01/25 13:35:35;;;;;;;;;;;1.10;98.60;;;;;;5027282;28;19909;-75
2022/01/25 13:38:17;;;;;;;;;;;1.20;98.60;;;;;;5027478;28;19913;-76
2022/01/25 13:40:54;;;;;;;;;;;1.20;98.60;;;;;;5029399;28;19918;-76
2022/01/25 13:46:38;;;;;;;;;;;1.00;98.60;;;;;;5026277;28;19910;-75
2022/01/25 13:49:06;;;;;;;;;;;0.90;98.70;;;;;;5027026;28;19909;-74
2022/01/25 13:51:58;;;;;;;;;;;0.90;99.00;;;;;;5025963;28;20085;-76
2022/01/25 13:54:26;;;;;;;;;;;1.00;99.10;;;;;;5027277;28;19909;-76
2022/01/25 13:56:52;;;;;;;;;;;1.10;98.80;;;;;;5042868;28;19948;-77
2022/01/25 13:59:21;;;;;;;;;;;1.10;98.50;;;;;;5026272;28;20155;-75
2022/01/25 14:01:47;;;;;;;;;;;1.10;98.70;;;;;;5027365;28;19913;-75
2022/01/25 14:04:20;;;;;;;;;;;1.10;98.50;;;;;;5027683;28;19945;-75
2022/01/25 14:07:04;;;;;;;;;;;1.00;98.90;;;;;;5027124;28;19909;-75
2022/01/25 14:09:34;;;;;;;;;;;1.10;98.70;;;;;;5043117;28;19910;-76
2022/01/25 14:25:29;;;;;;;;;;;0.90;99.10;;;;;;5045963;28;19909;-75
2022/01/25 14:27:57;;;;;;;;;;;0.90;99.50;;;;;;5030051;28;19932;-75
2022/01/25 14:30:23;;;;;;;;;;;1.00;99.20;;;;;;5029609;28;19917;-75
2022/01/25 14:33:11;;;;;;;;;;;1.00;98.90;;;;;;5046079;28;19909;-74
2022/01/25 14:35:51;;;;;;;;;;;1.00;98.90;;;;;;5047290;28;19955;-75
2022/01/25 14:38:21;;;;;;;;;;;1.10;98.90;;;;;;5045615;28;20257;-75
2022/01/25 14:41:25;;;;;;;;;;;1.10;99.00;;;;;;5047381;28;19920;-75
2022/01/25 14:44:00;;;;;;;;;;;1.10;98.90;;;;;;5035715;28;19917;-75
2022/01/25 14:46:31;;;;;;;;;;;1.10;98.80;;;;;;5046923;28;19911;-75
2022/01/25 14:49:04;;;;;;;;;;;1.10;98.90;;;;;;5049220;28;19909;-75
2022/01/25 14:51:37;;;;;;;;;;;1.10;99.00;;;;;;5049954;28;19909;-75
2022/01/25 14:54:03;;;;;;;;;;;1.00;99.20;;;;;;5046032;28;19940;-75
2022/01/25 14:56:33;;;;;;;;;;;1.00;99.30;;;;;;5049444;28;19988;-75
2022/01/25 15:01:32;;;;;;;;;;;1.10;99.00;;;;;;5049797;28;19909;-76
2022/01/25 15:03:58;;;;;;;;;;;1.20;98.90;;;;;;5049208;28;19927;-74
2022/01/25 15:06:24;;;;;;;;;;;1.10;98.90;;;;;;5031394;28;19909;-75
2022/01/25 15:08:51;;;;;;;;;;;1.00;98.80;;;;;;5046466;28;19916;-75
2022/01/25 15:11:17;;;;;;;;;;;1.00;99.10;;;;;;5045808;28;19909;-75
2022/01/25 15:13:43;;;;;;;;;;;1.00;99.00;;;;;;5045580;28;19917;-75
2022/01/25 15:16:10;;;;;;;;;;;1.00;99.10;;;;;;5045157;28;19909;-76
2022/01/25 15:18:38;;;;;;;;;;;0.90;98.90;;;;;;5046023;28;19909;-75
2022/01/25 15:21:05;;;;;;;;;;;0.90;98.80;;;;;;5044916;28;19909;-76
2022/01/25 15:23:33;;;;;;;;;;;0.90;99.10;;;;;;5028983;28;19913;-75
2022/01/25 15:26:04;;;;;;;;;;;0.90;99.20;;;;;;5045046;28;19976;-75
2022/01/25 15:28:37;;;;;;;;;;;0.90;99.20;;;;;;5046231;28;19909;-75
2022/01/25 15:31:07;;;;;;;;;;;1.00;99.20;;;;;;5041740;28;19920;-70
2022/01/25 15:33:33;;;;;;;;;;;1.10;99.30;;;;;;5042411;28;19917;-70
2022/01/25 15:36:00;;;;;;;;;;;1.20;98.60;;;;;;5043281;28;19916;-76
2022/01/25 15:38:25;;;;;;;;;;;1.20;98.80;;;;;;5027218;28;19976;-76
2022/01/25 15:40:51;;;;;;;;;;;1.00;99.00;;;;;;5043277;28;19913;-76
2022/01/25 15:43:23;;;;;;;;;;;1.00;99.10;;;;;;5043544;28;19956;-78
2022/01/25 15:46:02;;;;;;;;;;;1.10;98.90;;;;;;5044556;28;20098;-75
2022/01/25 15:48:28;;;;;;;;;;;1.10;98.50;;;;;;5044320;28;19917;-75
2022/01/25 15:50:54;;;;;;;;;;;1.10;98.60;;;;;;5048535;28;19916;-75
2022/01/25 15:53:19;;;;;;;;;;;1.10;98.40;;;;;;5049187;28;19913;-75
2022/01/25 15:55:45;;;;;;;;;;;1.10;98.30;;;;;;5047693;28;19909;-75
2022/01/25 15:58:11;;;;;;;;;;;1.10;98.60;;;;;;5047351;28;19909;-75
2022/01/25 16:00:37;;;;;;;;;;;1.10;98.60;;;;;;5030536;28;20130;-74
2022/01/25 16:03:03;;;;;;;;;;;1.10;98.70;;;;;;5031054;28;19968;-75
2022/01/25 16:05:29;;;;;;;;;;;1.10;98.90;;;;;;5031034;28;19980;-75
2022/01/25 16:07:54;;;;;;;;;;;1.00;98.90;;;;;;5048468;28;19916;-74
2022/01/25 16:10:22;;;;;;;;;;;1.00;99.30;;;;;;5048677;28;20208;-75
2022/01/25 16:12:48;;;;;;;;;;;1.00;99.20;;;;;;5030867;28;19917;-74
2022/01/25 16:15:14;;;;;;;;;;;1.00;99.20;;;;;;5046938;28;19909;-74
2022/01/25 16:17:40;;;;;;;;;;;0.90;99.40;;;;;;5030897;28;19931;-75
2022/01/25 16:20:08;;;;;;;;;;;0.90;99.20;;;;;;5047221;28;20195;-75
2022/01/25 16:22:33;;;;;;;;;;;0.90;99.30;;;;;;5029667;28;20160;-75
2022/01/25 16:24:59;;;;;;;;;;;0.90;99.50;;;;;;5047517;28;19916;-75
2022/01/25 16:27:25;;;;;;;;;;;0.80;99.70;;;;;;5047281;28;19910;-75
2022/01/25 16:29:51;;;;;;;;;;;0.90;99.90;;;;;;5046948;28;19948;-75
2022/01/25 16:32:20;;;;;;;;;;;0.90;99.60;;;;;;5046200;28;19913;-75
2022/01/25 16:34:46;;;;;;;;;;;1.00;99.60;;;;;;5047258;28;19909;-75
2022/01/25 16:37:13;;;;;;;;;;;1.00;99.70;;;;;;5046323;28;19919;-75
2022/01/25 16:39:39;;;;;;;;;;;0.90;99.60;;;;;;5029848;28;19966;-74
2022/01/25 16:42:06;;;;;;;;;;;0.80;99.90;;;;;;5044268;28;20266;-74
2022/01/25 16:44:31;;;;;;;;;;;0.90;99.90;;;;;;5029275;28;19913;-74
2022/01/25 16:46:57;;;;;;;;;;;0.90;99.80;;;;;;5046137;28;20043;-74
2022/01/25 16:49:23;;;;;;;;;;;0.80;99.90;;;;;;5042813;28;20220;-75
2022/01/25 16:51:48;;;;;;;;;;;0.90;99.90;;;;;;5027203;28;19909;-74
2022/01/25 16:54:14;;;;;;;;;;;1.00;99.70;;;;;;5026022;28;19952;-74